Time;durP1;ratioP1;P1;durP2;ratioP2;P2;SDS_P1;SDS_P2;PMS_P1;PMS_P2;Temp;Humidity;BMP_temperature;BMP_pressure;BME280_temperature;BME280_humidity;BME280_pressure;Samples;Min_cycle;Max_cycle;Signal;HPM_P1;HPM_P2
2023/10/31 00:01:32;;;;;;;4.33;1.80;;;;;;;14.30;88.12;99199.81;5088533;28;20198;-62
2023/10/31 00:04:00;;;;;;;2.57;2.00;;;;;;;14.26;87.99;99204.41;5088680;28;20197;-62
2023/10/31 00:06:27;;;;;;;1.87;1.37;;;;;;;14.19;87.64;99198.94;5088954;28;20208;-62
2023/10/31 00:08:54;;;;;;;3.80;1.90;;;;;;;14.18;88.57;99196.53;5088764;28;20208;-62
2023/10/31 00:11:21;;;;;;;2.53;1.30;;;;;;;14.18;88.44;99197.34;5088727;28;20204;-62
2023/10/31 00:13:48;;;;;;;5.70;2.13;;;;;;;14.19;88.33;99198.94;5088584;28;20466;-62
2023/10/31 00:16:14;;;;;;;4.90;1.70;;;;;;;14.20;89.36;99195.47;5088474;28;20693;-62
2023/10/31 00:18:41;;;;;;;3.90;1.67;;;;;;;14.18;90.10;99189.63;5088587;28;20236;-62
2023/10/31 00:21:09;;;;;;;2.47;1.90;;;;;;;14.18;89.93;99192.19;5088335;28;20195;-62
2023/10/31 00:23:43;;;;;;;3.63;1.87;;;;;;;14.15;90.38;99187.31;5088326;28;20197;-62
2023/10/31 00:26:10;;;;;;;2.20;1.80;;;;;;;14.12;90.37;99177.28;5088634;28;20246;-62
2023/10/31 00:28:37;;;;;;;2.30;1.53;;;;;;;14.12;91.33;99176.50;5088867;28;20255;-62
2023/10/31 00:31:05;;;;;;;2.00;1.77;;;;;;;14.10;91.47;99179.16;5088227;28;20688;-62
2023/10/31 00:33:32;;;;;;;4.03;1.80;;;;;;;14.03;91.30;99172.94;5088217;28;20240;-62
2023/10/31 00:35:59;;;;;;;3.70;1.90;;;;;;;14.00;91.45;99168.06;5088626;28;20198;-62
2023/10/31 00:38:27;;;;;;;2.57;1.90;;;;;;;13.97;91.30;99163.19;5088320;28;20235;-62
2023/10/31 00:40:54;;;;;;;2.60;1.93;;;;;;;13.95;91.49;99159.91;5088455;28;20210;-62
2023/10/31 00:43:20;;;;;;;2.33;1.70;;;;;;;13.92;91.27;99160.19;5088236;28;20198;-62
2023/10/31 00:45:47;;;;;;;3.07;1.70;;;;;;;13.77;91.67;99157.97;5088277;28;20203;-62
2023/10/31 00:48:14;;;;;;;4.37;2.17;;;;;;;13.68;92.19;99158.75;5092008;28;20214;-62
2023/10/31 00:50:41;;;;;;;4.43;1.87;;;;;;;13.62;91.69;99154.13;5092063;28;20206;-62
2023/10/31 00:53:08;;;;;;;2.33;1.47;;;;;;;13.58;92.02;99157.88;5092129;28;20198;-62
2023/10/31 00:55:36;;;;;;;4.23;2.30;;;;;;;13.54;92.05;99153.94;5092228;28;20593;-62
2023/10/31 00:58:03;;;;;;;2.40;1.70;;;;;;;13.57;91.72;99151.13;5091659;28;20805;-62
2023/10/31 01:00:30;;;;;;;2.40;1.43;;;;;;;13.77;90.60;99154.59;5091887;28;20205;-62
2023/10/31 01:02:57;;;;;;;3.17;1.70;;;;;;;13.85;90.52;99146.25;5091905;28;20419;-61
2023/10/31 01:05:23;;;;;;;2.00;1.43;;;;;;;13.87;90.39;99149.47;5091708;28;20199;-62
2023/10/31 01:07:50;;;;;;;3.50;1.50;;;;;;;13.88;91.09;99146.78;5092019;28;20211;-62
2023/10/31 01:10:17;;;;;;;2.37;1.70;;;;;;;13.84;90.79;99142.84;5091871;28;20209;-62
2023/10/31 01:12:45;;;;;;;2.37;1.87;;;;;;;13.82;91.14;99140.41;5091425;28;20218;-62
2023/10/31 01:15:12;;;;;;;2.13;1.57;;;;;;;13.78;90.72;99149.31;5091729;28;20205;-62
2023/10/31 01:17:39;;;;;;;4.30;2.07;;;;;;;13.76;91.96;99148.63;5091588;28;20198;-61
2023/10/31 01:20:07;;;;;;;4.03;1.83;;;;;;;13.66;91.83;99145.22;5091295;28;20234;-62
2023/10/31 01:22:34;;;;;;;3.53;2.00;;;;;;;13.58;91.32;99137.31;5090285;28;20206;-61
2023/10/31 01:25:01;;;;;;;7.10;1.87;;;;;;;13.55;91.69;99143.53;5091234;28;20202;-62
2023/10/31 01:27:27;;;;;;;3.27;1.80;;;;;;;13.53;92.09;99131.78;5091559;28;20229;-62
2023/10/31 01:29:56;;;;;;;2.40;1.80;;;;;;;13.50;92.37;99127.72;5091407;28;20221;-61
2023/10/31 01:32:22;;;;;;;2.60;2.13;;;;;;;13.46;92.73;99120.38;5091216;28;20200;-62
2023/10/31 01:34:49;;;;;;;4.27;1.70;;;;;;;13.44;94.55;99124.81;5091632;28;20206;-62
2023/10/31 01:37:19;;;;;;;2.60;2.13;;;;;;;13.40;94.68;99116.56;5091385;28;20202;-62
2023/10/31 01:39:45;;;;;;;2.43;1.40;;;;;;;13.36;95.05;99115.19;5091003;28;20234;-62
2023/10/31 01:42:14;;;;;;;3.33;1.70;;;;;;;13.33;94.96;99121.41;5091162;28;20209;-62
2023/10/31 01:44:41;;;;;;;2.20;1.60;;;;;;;13.34;96.11;99117.88;5090971;28;20253;-62
2023/10/31 01:47:09;;;;;;;3.13;1.77;;;;;;;13.31;95.78;99105.31;5091233;28;20493;-62
2023/10/31 01:49:37;;;;;;;5.43;1.77;;;;;;;13.27;95.90;99109.06;5090781;28;20217;-61
2023/10/31 01:52:05;;;;;;;2.63;1.47;;;;;;;13.25;96.96;99113.53;5090800;28;20209;-61
2023/10/31 01:54:33;;;;;;;6.03;2.00;;;;;;;13.21;97.21;99119.03;5091086;28;20240;-62
2023/10/31 01:57:00;;;;;;;9.43;2.07;;;;;;;13.22;97.68;99124.00;5090462;28;20222;-62
2023/10/31 01:59:28;;;;;;;4.93;2.17;;;;;;;13.20;98.60;99125.88;5090465;28;20240;-62
2023/10/31 02:01:56;;;;;;;4.97;1.97;;;;;;;13.20;98.60;99123.31;5090834;28;20216;-62
2023/10/31 02:04:25;;;;;;;3.43;1.90;;;;;;;13.21;98.88;99119.81;5090909;28;20222;-62
2023/10/31 02:06:51;;;;;;;5.00;1.73;;;;;;;13.21;98.92;99119.03;5090150;28;20236;-62
2023/10/31 02:09:18;;;;;;;2.43;1.60;;;;;;;13.23;98.99;99115.34;5088931;28;20210;-63
2023/10/31 02:11:45;;;;;;;3.67;1.93;;;;;;;13.21;98.59;99119.81;5089160;28;20206;-62
2023/10/31 02:14:12;;;;;;;3.37;1.57;;;;;;;13.20;98.19;99122.50;5090663;28;20658;-62
2023/10/31 02:16:39;;;;;;;2.83;1.83;;;;;;;13.22;98.41;99121.44;5090630;28;20198;-62
2023/10/31 02:19:07;;;;;;;4.60;2.03;;;;;;;13.18;98.89;99127.78;5090401;28;20242;-62
2023/10/31 02:21:35;;;;;;;4.37;2.13;;;;;;;13.16;99.57;99126.28;5090214;28;20683;-62
2023/10/31 02:24:04;;;;;;;3.33;1.90;;;;;;;13.19;99.50;99126.84;5090460;28;20199;-62
2023/10/31 02:26:31;;;;;;;2.93;1.93;;;;;;;13.27;99.63;99129.63;5090236;28;20198;-62
2023/10/31 02:28:59;;;;;;;3.47;1.77;;;;;;;13.29;99.54;99125.19;5090198;28;20198;-62
2023/10/31 02:31:26;;;;;;;2.57;1.60;;;;;;;13.29;99.28;99126.91;5090508;28;20618;-62
2023/10/31 02:33:53;;;;;;;2.20;1.37;;;;;;;13.28;99.11;99126.09;5090195;28;20202;-62
2023/10/31 02:36:20;;;;;;;3.03;2.20;;;;;;;13.30;98.37;99134.50;5090233;28;20208;-62
2023/10/31 02:38:46;;;;;;;1.97;1.47;;;;;;;13.27;98.26;99128.81;5089882;28;20232;-62
2023/10/31 02:41:15;;;;;;;3.73;2.40;;;;;;;13.15;100.00;99128.03;5089977;28;20593;-62
2023/10/31 02:43:42;;;;;;;2.57;1.70;;;;;;;13.16;100.00;99124.53;5090474;28;20221;-61
2023/10/31 02:46:11;;;;;;;3.60;1.90;;;;;;;13.26;99.26;99127.97;5089679;28;20597;-62
2023/10/31 02:48:39;;;;;;;6.27;1.80;;;;;;;13.30;99.24;99139.63;5089753;28;20216;-62
2023/10/31 02:51:07;;;;;;;4.37;1.90;;;;;;;13.32;99.13;99127.50;5089909;28;20205;-61
2023/10/31 02:53:34;;;;;;;4.70;2.90;;;;;;;13.32;99.08;99132.63;5089623;28;20237;-62
2023/10/31 02:56:01;;;;;;;2.53;1.70;;;;;;;13.28;99.05;99120.97;5089991;28;20202;-62
2023/10/31 02:58:29;;;;;;;3.80;2.07;;;;;;;13.25;99.40;99128.09;5089492;28;20196;-62
2023/10/31 03:00:56;;;;;;;4.37;2.30;;;;;;;13.24;99.36;99129.84;5089525;28;20213;-62
2023/10/31 03:03:23;;;;;;;2.27;1.70;;;;;;;13.25;99.41;99128.09;5089298;28;20587;-62
2023/10/31 03:05:49;;;;;;;2.53;1.80;;;;;;;13.23;99.32;99127.38;5090064;28;20198;-62
2023/10/31 03:08:20;;;;;;;2.57;1.90;;;;;;;13.19;99.39;99131.97;5089272;28;20198;-62
2023/10/31 03:10:49;;;;;;;3.07;1.93;;;;;;;13.13;99.18;99128.16;5089221;28;20202;-62
2023/10/31 03:13:16;;;;;;;4.87;1.87;;;;;;;13.09;98.76;99131.13;5089695;28;20592;-62
2023/10/31 03:15:44;;;;;;;3.83;2.03;;;;;;;13.08;98.80;99134.59;5089724;28;20320;-62
2023/10/31 03:18:11;;;;;;;4.03;1.80;;;;;;;12.91;99.51;99133.41;5089301;28;20198;-62
2023/10/31 03:20:38;;;;;;;3.03;2.00;;;;;;;12.84;100.00;99127.97;5089301;28;20606;-62
2023/10/31 03:23:05;;;;;;;5.37;1.67;;;;;;;12.86;100.00;99120.97;5089193;28;20204;-62
2023/10/31 03:25:31;;;;;;;3.80;1.73;;;;;;;12.90;100.00;99122.31;5089195;28;20204;-62
2023/10/31 03:27:59;;;;;;;2.83;1.57;;;;;;;12.96;100.00;99120.22;5089075;28;20225;-62
2023/10/31 03:30:26;;;;;;;2.57;2.00;;;;;;;12.99;99.29;99119.97;5089226;28;20279;-61
2023/10/31 03:32:54;;;;;;;2.97;1.53;;;;;;;13.04;99.26;99117.84;5089182;28;20200;-62
2023/10/31 03:35:21;;;;;;;3.33;2.10;;;;;;;13.10;98.91;99119.91;5089034;28;20198;-62
2023/10/31 03:37:47;;;;;;;2.73;2.07;;;;;;;13.18;98.50;99109.81;5088927;28;20706;-62
2023/10/31 03:40:14;;;;;;;2.43;1.63;;;;;;;13.33;97.56;99106.00;5089259;28;20240;-62
2023/10/31 03:42:41;;;;;;;2.27;1.80;;;;;;;13.42;97.13;99106.97;5088986;28;20207;-62
2023/10/31 03:45:09;;;;;;;2.93;1.77;;;;;;;13.46;96.78;99107.53;5088860;28;20328;-62
2023/10/31 03:47:36;;;;;;;2.77;1.60;;;;;;;13.55;96.18;99109.31;5089107;28;20222;-62
2023/10/31 03:50:04;;;;;;;3.43;2.07;;;;;;;13.54;96.16;99110.28;5088675;28;20568;-62
2023/10/31 03:52:31;;;;;;;4.63;2.07;;;;;;;13.55;96.00;99104.19;5088748;28;20591;-62
2023/10/31 03:54:58;;;;;;;3.33;1.70;;;;;;;13.53;95.87;99103.53;5089044;28;20205;-62
2023/10/31 03:57:24;;;;;;;2.47;1.60;;;;;;;13.53;96.18;99093.25;5089335;28;20217;-63
2023/10/31 03:59:51;;;;;;;2.27;1.60;;;;;;;13.53;96.67;99099.19;5088528;28;20242;-62
2023/10/31 04:02:18;;;;;;;2.23;1.60;;;;;;;13.51;96.45;99095.13;5088798;28;20681;-62
2023/10/31 04:04:45;;;;;;;1.57;1.20;;;;;;;13.49;96.69;99094.44;5088771;28;20210;-62
2023/10/31 04:07:13;;;;;;;4.87;1.83;;;;;;;13.44;97.22;99094.84;5088706;28;20200;-62
2023/10/31 04:09:40;;;;;;;3.23;1.90;;;;;;;13.43;97.00;99092.38;5088515;28;20202;-62
2023/10/31 04:12:07;;;;;;;1.90;1.30;;;;;;;13.45;97.49;99090.50;5088294;28;20229;-62
2023/10/31 04:14:34;;;;;;;2.77;1.40;;;;;;;13.45;97.54;99098.22;5088508;28;20199;-62
2023/10/31 04:17:00;;;;;;;3.50;1.93;;;;;;;13.40;98.05;99088.31;5088439;28;20206;-62
2023/10/31 04:19:27;;;;;;;3.97;1.80;;;;;;;13.46;97.88;99087.78;5088468;28;20227;-62
2023/10/31 04:21:55;;;;;;;4.33;1.90;;;;;;;13.46;98.06;99087.00;5092218;28;20202;-62
2023/10/31 04:24:23;;;;;;;2.97;2.00;;;;;;;13.43;97.58;99082.91;5092650;28;20205;-62
2023/10/31 04:26:50;;;;;;;4.07;1.90;;;;;;;13.49;98.01;99086.72;5092901;28;20209;-62
2023/10/31 04:29:17;;;;;;;2.40;1.63;;;;;;;13.48;97.65;99079.97;5092621;28;20487;-62
2023/10/31 04:31:43;;;;;;;3.27;2.10;;;;;;;13.47;98.32;99080.94;5092677;28;20211;-62
2023/10/31 04:34:10;;;;;;;3.23;1.60;;;;;;;13.44;97.71;99073.44;5092388;28;20623;-62
2023/10/31 04:36:37;;;;;;;3.50;1.80;;;;;;;13.48;98.07;99080.78;5092656;28;20206;-62
2023/10/31 04:39:04;;;;;;;3.10;1.90;;;;;;;13.47;98.21;99078.34;5092370;28;20206;-62
2023/10/31 04:41:32;;;;;;;2.87;1.70;;;;;;;13.41;97.38;99084.81;5092591;28;20230;-62
2023/10/31 04:43:59;;;;;;;2.57;1.90;;;;;;;13.38;97.36;99079.09;5092437;28;20203;-62
2023/10/31 04:46:27;;;;;;;4.10;1.60;;;;;;;13.28;97.80;99079.88;5091995;28;20219;-62
2023/10/31 04:48:54;;;;;;;5.63;1.60;;;;;;;13.29;98.45;99091.81;5092177;28;20259;-62
2023/10/31 04:51:21;;;;;;;3.23;1.53;;;;;;;13.36;98.03;99082.63;5092428;28;20284;-62
2023/10/31 04:53:48;;;;;;;1.43;1.30;;;;;;;13.50;96.97;99078.09;5092471;28;20193;-62
2023/10/31 04:56:15;;;;;;;1.40;1.13;;;;;;;13.48;97.08;99074.84;5092274;28;20198;-62
2023/10/31 04:58:43;;;;;;;4.50;1.27;;;;;;;13.54;96.47;99080.25;5092097;28;20217;-61
2023/10/31 05:01:09;;;;;;;1.70;1.33;;;;;;;13.63;95.69;99070.16;5092015;28;20292;-62
2023/10/31 05:03:36;;;;;;;1.63;1.47;;;;;;;13.66;96.29;99068.13;5091716;28;20208;-62
2023/10/31 05:06:03;;;;;;;1.57;1.23;;;;;;;13.63;96.18;99072.72;5091858;28;20215;-62
2023/10/31 05:08:30;;;;;;;2.27;1.63;;;;;;;13.69;96.00;99072.19;5091919;28;20195;-62
2023/10/31 05:10:57;;;;;;;1.50;1.30;;;;;;;13.72;96.38;99067.59;5091922;28;20203;-63
2023/10/31 05:13:24;;;;;;;2.03;1.27;;;;;;;13.73;96.40;99069.25;5091613;28;20223;-62
2023/10/31 05:15:52;;;;;;;2.33;1.63;;;;;;;13.79;96.17;99063.56;5091754;28;20207;-62
2023/10/31 05:18:19;;;;;;;3.03;1.50;;;;;;;13.81;96.24;99066.81;5091403;28;20690;-62
2023/10/31 05:20:46;;;;;;;5.37;1.60;;;;;;;13.79;96.16;99066.16;5091589;28;20746;-62
2023/10/31 05:23:13;;;;;;;2.33;1.50;;;;;;;13.72;97.42;99064.22;5091383;28;20587;-62
2023/10/31 05:25:40;;;;;;;1.20;1.10;;;;;;;13.80;97.10;99065.19;5091344;28;20210;-63
2023/10/31 05:28:07;;;;;;;3.23;1.50;;;;;;;13.82;96.79;99060.75;5091454;28;20202;-62
2023/10/31 05:30:34;;;;;;;1.87;1.33;;;;;;;13.85;97.21;99061.44;5091230;28;20698;-62
2023/10/31 05:33:02;;;;;;;2.13;1.60;;;;;;;13.97;96.90;99070.66;5090794;28;20196;-62
2023/10/31 05:35:29;;;;;;;2.53;1.70;;;;;;;14.08;96.39;99072.25;5091620;28;20222;-62
2023/10/31 05:37:56;;;;;;;2.17;1.43;;;;;;;14.14;96.20;99077.72;5091161;28;20596;-62
2023/10/31 05:40:25;;;;;;;5.27;2.40;;;;;;;14.24;96.57;99073.38;5091181;28;20231;-62
2023/10/31 05:42:53;;;;;;;7.03;4.00;;;;;;;14.37;96.30;99077.44;5091188;28;20265;-62
2023/10/31 05:45:19;;;;;;;5.47;2.60;;;;;;;14.47;96.23;99089.34;5091095;28;20203;-62
2023/10/31 05:47:46;;;;;;;7.27;3.27;;;;;;;14.50;95.95;99090.84;5091342;28;20213;-62
2023/10/31 05:50:14;;;;;;;12.67;4.00;;;;;;;14.48;96.32;99100.44;5091133;28;20235;-62
2023/10/31 05:52:41;;;;;;;4.83;2.57;;;;;;;14.61;96.14;99095.88;5090798;28;20216;-62
2023/10/31 05:55:09;;;;;;;2.87;2.10;;;;;;;14.69;96.84;99098.59;5089368;28;20212;-62
2023/10/31 05:57:36;;;;;;;5.50;2.40;;;;;;;14.79;97.12;99097.78;5090763;28;20234;-63
2023/10/31 06:00:02;;;;;;;5.63;2.40;;;;;;;14.87;97.10;99103.06;5090432;28;20612;-62
2023/10/31 06:02:29;;;;;;;2.33;1.73;;;;;;;15.01;97.54;99118.06;5090696;28;20204;-62
2023/10/31 06:04:56;;;;;;;2.50;1.90;;;;;;;15.14;97.80;99103.13;5090811;28;20208;-62
2023/10/31 06:07:25;;;;;;;1.97;1.37;;;;;;;15.39;95.15;99106.03;5090804;28;20657;-63
2023/10/31 06:09:51;;;;;;;3.10;2.10;;;;;;;15.59;95.34;99102.44;5090437;28;20666;-62
2023/10/31 06:12:18;;;;;;;7.03;1.70;;;;;;;15.90;93.02;99104.75;5090873;28;20217;-63
2023/10/31 06:14:45;;;;;;;2.10;1.53;;;;;;;16.19;91.31;99108.91;5090495;28;20560;-63
2023/10/31 06:17:12;;;;;;;2.10;1.63;;;;;;;16.53;91.93;99101.34;5090611;28;20206;-63
2023/10/31 06:19:44;;;;;;;4.70;2.23;;;;;;;16.86;90.63;99102.41;5090326;28;20209;-63
2023/10/31 06:22:11;;;;;;;3.03;2.20;;;;;;;17.19;89.54;99107.78;5090613;28;20628;-62
2023/10/31 06:24:40;;;;;;;5.17;2.40;;;;;;;17.52;89.47;99098.44;5090287;28;20194;-63
2023/10/31 06:27:07;;;;;;;4.43;1.87;;;;;;;17.98;87.70;99103.34;5090125;28;20218;-63
2023/10/31 06:29:34;;;;;;;2.87;2.10;;;;;;;18.54;90.11;99104.38;5090156;28;20615;-63
2023/10/31 06:32:01;;;;;;;3.07;1.80;;;;;;;19.00;85.18;99099.53;5090189;28;20208;-63
2023/10/31 06:34:28;;;;;;;3.67;2.10;;;;;;;19.55;82.29;99098.72;5090047;28;20317;-63
2023/10/31 06:36:54;;;;;;;5.13;2.97;;;;;;;20.04;80.81;99101.13;5090136;28;20206;-63
2023/10/31 06:39:22;;;;;;;5.77;3.07;;;;;;;20.50;78.42;99098.50;5090236;28;20196;-63
2023/10/31 06:41:50;;;;;;;4.27;2.87;;;;;;;20.88;75.04;99101.13;5090084;28;20633;-63
2023/10/31 06:44:17;;;;;;;4.10;2.60;;;;;;;21.36;76.02;99109.47;5090036;28;20227;-63
2023/10/31 06:46:44;;;;;;;7.07;2.27;;;;;;;21.53;66.66;99107.50;5090105;28;20219;-63
2023/10/31 06:49:10;;;;;;;2.93;1.77;;;;;;;21.90;66.18;99111.75;5089665;28;20215;-62
2023/10/31 06:51:37;;;;;;;2.90;2.00;;;;;;;22.24;65.77;99101.69;5089883;28;20240;-63
2023/10/31 06:54:04;;;;;;;2.53;1.73;;;;;;;22.68;66.08;99098.88;5089535;28;20207;-63
2023/10/31 06:56:31;;;;;;;4.35;1.95;;;;;;;23.07;60.64;99097.59;5089848;28;20193;-63
2023/10/31 06:58:59;;;;;;;3.30;1.80;;;;;;;23.38;58.44;99098.94;5089699;28;20198;-63
2023/10/31 07:01:26;;;;;;;2.60;1.77;;;;;;;23.61;57.75;99096.84;5089322;28;20307;-63
2023/10/31 07:03:53;;;;;;;6.03;2.28;;;;;;;23.87;56.23;99095.34;5089436;28;20371;-63
2023/10/31 07:06:21;;;;;;;4.88;2.15;;;;;;;24.11;53.11;99092.19;5089576;28;20205;-63
2023/10/31 07:08:47;;;;;;;6.07;1.90;;;;;;;24.18;54.24;99085.19;5089617;28;20240;-63
2023/10/31 07:11:14;;;;;;;7.03;2.05;;;;;;;24.55;56.35;99084.81;5089420;28;20194;-63
2023/10/31 07:13:41;;;;;;;5.40;2.05;;;;;;;23.64;50.64;99080.78;5089222;28;20484;-63
2023/10/31 07:16:09;;;;;;;6.03;2.88;;;;;;;23.85;51.45;99073.84;5089156;28;20524;-63
2023/10/31 07:18:36;;;;;;;3.97;1.92;;;;;;;24.24;52.59;99072.34;5089275;28;20198;-63
2023/10/31 07:21:04;;;;;;;7.95;2.75;;;;;;;23.92;49.24;99067.66;5089652;28;20723;-63
2023/10/31 07:23:31;;;;;;;3.22;2.05;;;;;;;24.34;51.74;99072.72;5088967;28;20209;-62
2023/10/31 07:25:57;;;;;;;5.40;2.30;;;;;;;24.65;49.98;99084.44;5089016;28;20210;-63
2023/10/31 07:28:24;;;;;;;6.38;2.03;;;;;;;24.99;49.04;99076.34;5089176;28;20202;-62
2023/10/31 07:30:51;;;;;;;1.80;1.65;;;;;;;25.32;48.32;99080.72;5089531;28;20209;-63
2023/10/31 07:33:19;;;;;;;5.57;2.30;;;;;;;25.34;46.96;99073.47;5089330;28;20271;-63
2023/10/31 07:35:46;;;;;;;5.03;2.10;;;;;;;25.74;46.35;99065.41;5089324;28;20198;-63
2023/10/31 07:38:13;;;;;;;3.17;1.90;;;;;;;25.42;46.75;99060.13;5089086;28;20198;-63
2023/10/31 07:40:40;;;;;;;4.45;2.28;;;;;;;25.93;47.25;99059.31;5088918;28;20237;-63
2023/10/31 07:43:06;;;;;;;4.20;1.85;;;;;;;25.71;44.95;99057.97;5088747;28;20198;-63
2023/10/31 07:45:33;;;;;;;4.85;2.00;;;;;;;26.39;48.01;99060.00;5088795;28;20194;-64
2023/10/31 07:48:00;;;;;;;4.13;1.80;;;;;;;26.81;45.21;99063.66;5087856;28;20213;-63
2023/10/31 07:50:28;;;;;;;2.08;1.80;;;;;;;27.26;44.77;99055.56;5087243;28;20202;-64
2023/10/31 07:52:55;;;;;;;2.55;1.70;;;;;;;27.64;42.09;99051.06;5087179;28;20202;-63
2023/10/31 07:55:22;;;;;;;2.22;1.50;;;;;;;27.85;39.83;99052.41;5086848;28;20584;-64
2023/10/31 07:57:49;;;;;;;2.33;1.67;;;;;;;27.57;39.22;99056.38;5089006;28;20222;-64
2023/10/31 08:00:16;;;;;;;3.08;1.65;;;;;;;27.76;39.60;99047.44;5088561;28;20328;-63
2023/10/31 08:02:43;;;;;;;2.03;1.55;;;;;;;27.84;40.27;99050.78;5088519;28;20205;-63
2023/10/31 08:05:11;;;;;;;3.08;1.63;;;;;;;27.47;39.87;99056.91;5088942;28;20213;-63
2023/10/31 08:07:39;;;;;;;2.17;1.65;;;;;;;27.70;40.34;99052.78;5088490;28;20599;-63
2023/10/31 08:10:07;;;;;;;1.88;1.65;;;;;;;27.82;39.34;99048.41;5088399;28;20198;-63
2023/10/31 08:12:35;;;;;;;2.55;2.00;;;;;;;28.19;40.96;99043.81;5088735;28;20705;-63
2023/10/31 08:15:02;;;;;;;5.18;1.85;;;;;;;27.87;39.98;99039.88;5088536;28;20198;-63
2023/10/31 08:17:29;;;;;;;3.45;2.17;;;;;;;27.06;39.45;99036.59;5088522;28;20205;-63
2023/10/31 08:19:56;;;;;;;2.38;2.10;;;;;;;27.64;40.54;99036.09;5088710;28;20278;-63
2023/10/31 08:22:22;;;;;;;2.95;1.90;;;;;;;28.21;43.53;99020.69;5088762;28;20338;-63
2023/10/31 08:24:51;;;;;;;3.67;2.10;;;;;;;28.58;41.86;99017.88;5088601;28;20209;-63
2023/10/31 08:27:17;;;;;;;3.17;1.60;;;;;;;28.89;40.51;99013.28;5088550;28;20236;-63
2023/10/31 08:29:44;;;;;;;2.97;2.03;;;;;;;28.77;37.61;99018.56;5088704;28;20194;-63
2023/10/31 08:32:11;;;;;;;3.10;2.20;;;;;;;28.89;37.71;99013.28;5088234;28;20206;-63
2023/10/31 08:34:38;;;;;;;2.47;1.95;;;;;;;29.15;38.49;99014.63;5088284;28;20202;-63
2023/10/31 08:37:04;;;;;;;3.67;1.85;;;;;;;29.28;37.75;99006.44;5088344;28;20205;-63
2023/10/31 08:39:32;;;;;;;2.38;1.58;;;;;;;29.56;38.30;99002.22;5088389;28;20198;-63
2023/10/31 08:42:00;;;;;;;3.17;1.92;;;;;;;29.84;36.72;99004.03;5088218;28;20234;-63
2023/10/31 08:44:27;;;;;;;3.40;1.98;;;;;;;30.06;35.92;98998.06;5088084;28;20244;-63
2023/10/31 08:46:54;;;;;;;3.22;1.80;;;;;;;30.26;37.47;98987.06;5088501;28;20240;-63
2023/10/31 08:49:21;;;;;;;4.70;1.50;;;;;;;30.45;34.85;98991.78;5088581;28;20199;-63
2023/10/31 08:51:48;;;;;;;1.70;1.60;;;;;;;30.63;35.55;98982.00;5088265;28;20195;-63
2023/10/31 08:54:15;;;;;;;6.50;2.92;;;;;;;30.61;37.06;98989.38;5088306;28;20698;-63
2023/10/31 08:56:41;;;;;;;6.15;2.85;;;;;;;30.48;36.71;98990.50;5088427;28;20593;-62
2023/10/31 08:59:10;;;;;;;5.22;2.55;;;;;;;30.58;35.91;98980.09;5088207;28;20217;-62
2023/10/31 09:01:36;;;;;;;3.80;2.45;;;;;;;30.66;36.12;98970.94;5087858;28;20578;-65
2023/10/31 09:04:04;;;;;;;4.75;2.58;;;;;;;30.73;36.98;98963.66;5088058;28;20198;-66
2023/10/31 09:06:30;;;;;;;4.68;2.60;;;;;;;30.61;36.46;98955.06;5088654;28;20203;-64
2023/10/31 09:08:57;;;;;;;5.18;2.28;;;;;;;30.19;35.09;98951.03;5091326;28;20251;-65
2023/10/31 09:11:24;;;;;;;3.65;2.13;;;;;;;29.90;37.52;98945.06;5091667;28;20198;-67
2023/10/31 09:13:51;;;;;;;7.68;3.45;;;;;;;30.01;37.22;98953.94;5091844;28;20475;-66
2023/10/31 09:16:19;;;;;;;12.00;2.85;;;;;;;29.93;36.15;98949.88;5091644;28;20210;-67
2023/10/31 09:18:46;;;;;;;5.68;2.90;;;;;;;29.97;37.87;98944.94;5091776;28;20683;-67
2023/10/31 09:21:13;;;;;;;14.95;6.55;;;;;;;29.80;36.53;98930.97;5092018;28;20267;-66
2023/10/31 09:23:40;;;;;;;14.43;6.65;;;;;;;29.67;37.82;98927.59;5091397;28;20225;-66
2023/10/31 09:26:07;;;;;;;18.52;7.68;;;;;;;29.81;39.30;98928.06;5091385;28;20567;-66
2023/10/31 09:28:34;;;;;;;9.80;5.43;;;;;;;30.09;37.58;98929.00;5091313;28;20279;-65
2023/10/31 09:31:01;;;;;;;11.43;4.63;;;;;;;30.28;38.66;98924.28;5091611;28;20281;-67
2023/10/31 09:33:29;;;;;;;8.73;3.90;;;;;;;30.25;35.08;98922.94;5091078;28;20195;-66
2023/10/31 09:35:56;;;;;;;5.75;2.92;;;;;;;30.08;37.50;98927.41;5091193;28;20213;-63
2023/10/31 09:38:23;;;;;;;9.05;5.55;;;;;;;30.12;37.12;98928.53;5091287;28;20700;-65
2023/10/31 09:40:50;;;;;;;11.55;5.18;;;;;;;30.03;37.06;98930.78;5091198;28;20236;-65
2023/10/31 09:43:17;;;;;;;5.45;2.90;;;;;;;30.14;35.90;98931.72;5091161;28;20366;-65
2023/10/31 09:45:45;;;;;;;4.97;3.22;;;;;;;30.51;37.51;98925.91;5091159;28;20194;-64
2023/10/31 09:48:12;;;;;;;6.13;3.38;;;;;;;30.45;38.26;98922.41;5091598;28;20291;-63
2023/10/31 09:50:42;;;;;;;4.88;2.72;;;;;;;30.52;37.60;98916.97;5091089;28;20198;-63
2023/10/31 09:53:11;;;;;;;4.97;3.08;;;;;;;30.33;36.99;98914.59;5090749;28;20233;-63
2023/10/31 09:55:38;;;;;;;4.15;2.55;;;;;;;30.57;37.73;98911.72;5090890;28;20673;-63
2023/10/31 09:58:05;;;;;;;8.27;3.75;;;;;;;30.55;36.59;98908.56;5090791;28;20589;-63
2023/10/31 10:00:32;;;;;;;8.60;3.97;;;;;;;30.22;38.85;98902.31;5090850;28;20194;-63
2023/10/31 10:02:59;;;;;;;5.90;3.05;;;;;;;30.16;37.37;98898.78;5090618;28;20241;-63
2023/10/31 10:05:27;;;;;;;4.55;2.60;;;;;;;30.30;38.28;98899.25;5090814;28;20209;-63
2023/10/31 10:07:57;;;;;;;4.03;2.45;;;;;;;30.16;38.09;98898.00;5090783;28;20206;-63
2023/10/31 10:10:24;;;;;;;4.35;2.65;;;;;;;30.16;36.90;98900.63;5090917;28;20618;-63
2023/10/31 10:12:53;;;;;;;4.13;2.60;;;;;;;30.26;36.01;98892.91;5090532;28;20236;-63
2023/10/31 10:15:20;;;;;;;3.88;2.50;;;;;;;30.41;37.25;98889.66;5090649;28;20198;-63
2023/10/31 10:17:50;;;;;;;3.53;2.55;;;;;;;30.59;36.60;98886.69;5090542;28;20228;-63
2023/10/31 10:20:17;;;;;;;3.50;2.35;;;;;;;30.58;35.55;98879.03;5090900;28;20659;-63
2023/10/31 10:22:44;;;;;;;3.08;2.00;;;;;;;30.54;35.61;98872.63;5090511;28;20240;-63
2023/10/31 10:25:15;;;;;;;4.18;2.20;;;;;;;30.46;35.61;98868.63;5090270;28;20202;-63
2023/10/31 10:27:42;;;;;;;2.42;2.05;;;;;;;29.98;36.31;98860.31;5090456;28;20293;-63
2023/10/31 10:30:10;;;;;;;3.00;2.40;;;;;;;30.14;35.81;98865.81;5090502;28;20217;-63
2023/10/31 10:32:37;;;;;;;4.28;2.10;;;;;;;29.97;36.32;98863.22;5090030;28;20202;-63
2023/10/31 10:35:04;;;;;;;5.72;2.30;;;;;;;30.29;37.40;98852.84;5090039;28;20198;-63
2023/10/31 10:37:32;;;;;;;4.03;2.28;;;;;;;30.06;36.73;98850.41;5090018;28;20609;-63
2023/10/31 10:39:59;;;;;;;4.75;2.22;;;;;;;30.10;35.89;98859.41;5090269;28;20198;-63
2023/10/31 10:42:33;;;;;;;4.32;2.40;;;;;;;30.26;37.07;98850.69;5089822;28;20710;-63
2023/10/31 10:45:04;;;;;;;4.18;2.30;;;;;;;29.95;37.79;98844.97;5090283;28;20194;-63
2023/10/31 10:47:32;;;;;;;4.28;2.47;;;;;;;29.89;36.97;98845.94;5090372;28;20587;-63
2023/10/31 10:50:01;;;;;;;3.55;2.38;;;;;;;30.01;37.25;98828.19;5089664;28;20205;-63
2023/10/31 10:52:33;;;;;;;3.20;2.20;;;;;;;29.85;37.85;98828.25;5089906;28;20209;-63
2023/10/31 10:55:06;;;;;;;3.65;2.35;;;;;;;29.67;36.33;98816.13;5089651;28;20578;-63
2023/10/31 10:57:39;;;;;;;3.28;2.28;;;;;;;29.74;37.07;98817.56;5089908;28;20276;-63
2023/10/31 11:00:09;;;;;;;4.45;2.10;;;;;;;29.58;38.10;98812.28;5089653;28;20255;-63
2023/10/31 11:02:37;;;;;;;3.58;2.25;;;;;;;29.43;37.34;98805.72;5089364;28;20317;-63
2023/10/31 11:05:06;;;;;;;3.78;2.30;;;;;;;29.41;36.87;98810.47;5089561;28;20209;-63
2023/10/31 11:07:35;;;;;;;3.38;1.98;;;;;;;29.41;36.85;98807.84;5089346;28;20233;-63
2023/10/31 11:10:02;;;;;;;2.55;2.00;;;;;;;29.34;36.70;98796.66;5089593;28;20217;-63
2023/10/31 11:12:31;;;;;;;2.15;1.80;;;;;;;29.24;37.23;98788.59;5089745;28;20256;-63
2023/10/31 11:15:00;;;;;;;2.58;2.00;;;;;;;29.22;38.64;98782.78;5089204;28;20678;-63
2023/10/31 11:17:30;;;;;;;5.88;2.13;;;;;;;29.19;36.82;98780.63;5089421;28;20194;-63
2023/10/31 11:19:58;;;;;;;4.00;2.20;;;;;;;28.86;37.01;98771.63;5089215;28;20234;-63
2023/10/31 11:22:25;;;;;;;2.45;1.88;;;;;;;28.94;39.17;98771.22;5089123;28;20230;-63
2023/10/31 11:24:52;;;;;;;5.43;1.90;;;;;;;28.86;37.30;98758.47;5089561;28;20213;-63
2023/10/31 11:27:19;;;;;;;6.88;2.03;;;;;;;29.05;38.34;98762.50;5089565;28;20198;-63
2023/10/31 11:29:46;;;;;;;3.08;1.80;;;;;;;28.98;37.13;98756.56;5088510;28;20195;-63
2023/10/31 11:32:15;;;;;;;2.83;2.10;;;;;;;29.01;38.21;98757.94;5088988;28;20202;-63
2023/10/31 11:34:43;;;;;;;2.65;1.73;;;;;;;29.07;37.98;98768.31;5089178;28;20201;-63